sensor_id;sensor_type;location;lat;lon;timestamp;P1;durP1;ratioP1;P2;durP2;ratioP2
4939;SDS011;2485;49.326;7.214;2022-10-16T00:00:07;5.43;;;1.70;;
4939;SDS011;2485;49.326;7.214;2022-10-16T00:02:34;2.20;;;1.87;;
4939;SDS011;2485;49.326;7.214;2022-10-16T00:05:00;8.03;;;2.10;;
4939;SDS011;2485;49.326;7.214;2022-10-16T00:07:28;6.70;;;2.33;;
4939;SDS011;2485;49.326;7.214;2022-10-16T00:09:54;5.03;;;2.07;;
4939;SDS011;2485;49.326;7.214;2022-10-16T00:12:21;4.30;;;1.87;;
4939;SDS011;2485;49.326;7.214;2022-10-16T00:14:47;3.17;;;2.00;;
4939;SDS011;2485;49.326;7.214;2022-10-16T00:17:13;5.57;;;2.13;;
4939;SDS011;2485;49.326;7.214;2022-10-16T00:19:40;4.90;;;2.50;;
4939;SDS011;2485;49.326;7.214;2022-10-16T00:22:06;5.20;;;2.00;;
4939;SDS011;2485;49.326;7.214;2022-10-16T00:24:34;2.40;;;2.10;;
4939;SDS011;2485;49.326;7.214;2022-10-16T00:27:00;5.83;;;2.10;;
4939;SDS011;2485;49.326;7.214;2022-10-16T00:29:26;6.07;;;2.60;;
4939;SDS011;2485;49.326;7.214;2022-10-16T00:31:53;4.17;;;1.87;;
4939;SDS011;2485;49.326;7.214;2022-10-16T00:34:19;3.30;;;2.00;;
4939;SDS011;2485;49.326;7.214;2022-10-16T00:36:45;3.10;;;1.90;;
4939;SDS011;2485;49.326;7.214;2022-10-16T00:39:12;7.63;;;2.70;;
4939;SDS011;2485;49.326;7.214;2022-10-16T00:41:39;3.37;;;2.10;;
4939;SDS011;2485;49.326;7.214;2022-10-16T00:46:47;5.43;;;2.43;;
4939;SDS011;2485;49.326;7.214;2022-10-16T00:49:14;2.67;;;2.23;;
4939;SDS011;2485;49.326;7.214;2022-10-16T00:51:41;3.20;;;2.10;;
4939;SDS011;2485;49.326;7.214;2022-10-16T00:54:09;2.10;;;1.90;;
4939;SDS011;2485;49.326;7.214;2022-10-16T00:56:36;3.87;;;2.10;;
4939;SDS011;2485;49.326;7.214;2022-10-16T00:59:04;1.80;;;1.70;;
4939;SDS011;2485;49.326;7.214;2022-10-16T01:01:32;2.50;;;1.70;;
4939;SDS011;2485;49.326;7.214;2022-10-16T01:03:58;4.50;;;2.10;;
4939;SDS011;2485;49.326;7.214;2022-10-16T01:06:27;3.60;;;2.23;;
4939;SDS011;2485;49.326;7.214;2022-10-16T01:09:01;2.40;;;2.10;;
4939;SDS011;2485;49.326;7.214;2022-10-16T01:11:31;4.10;;;1.87;;
4939;SDS011;2485;49.326;7.214;2022-10-16T01:14:05;3.37;;;2.10;;
4939;SDS011;2485;49.326;7.214;2022-10-16T01:16:33;2.77;;;2.10;;
4939;SDS011;2485;49.326;7.214;2022-10-16T01:19:02;2.70;;;2.40;;
4939;SDS011;2485;49.326;7.214;2022-10-16T01:21:31;3.30;;;1.70;;
4939;SDS011;2485;49.326;7.214;2022-10-16T01:24:00;6.83;;;1.83;;
4939;SDS011;2485;49.326;7.214;2022-10-16T01:26:35;4.87;;;2.23;;
4939;SDS011;2485;49.326;7.214;2022-10-16T01:29:05;3.73;;;2.23;;
4939;SDS011;2485;49.326;7.214;2022-10-16T01:31:33;4.50;;;2.00;;
4939;SDS011;2485;49.326;7.214;2022-10-16T01:34:03;3.00;;;2.17;;
4939;SDS011;2485;49.326;7.214;2022-10-16T01:36:33;3.47;;;2.50;;
4939;SDS011;2485;49.326;7.214;2022-10-16T01:39:01;7.20;;;2.20;;
4939;SDS011;2485;49.326;7.214;2022-10-16T01:41:30;3.90;;;2.30;;
4939;SDS011;2485;49.326;7.214;2022-10-16T01:43:58;6.00;;;2.37;;
4939;SDS011;2485;49.326;7.214;2022-10-16T01:46:29;2.57;;;2.37;;
4939;SDS011;2485;49.326;7.214;2022-10-16T01:48:56;4.77;;;2.67;;
4939;SDS011;2485;49.326;7.214;2022-10-16T01:51:23;3.03;;;2.30;;
4939;SDS011;2485;49.326;7.214;2022-10-16T01:53:52;2.90;;;2.00;;
4939;SDS011;2485;49.326;7.214;2022-10-16T01:56:19;2.50;;;2.10;;
4939;SDS011;2485;49.326;7.214;2022-10-16T01:58:48;3.17;;;2.50;;
4939;SDS011;2485;49.326;7.214;2022-10-16T02:01:16;3.93;;;2.10;;
4939;SDS011;2485;49.326;7.214;2022-10-16T02:03:45;2.17;;;2.00;;
4939;SDS011;2485;49.326;7.214;2022-10-16T02:06:12;2.80;;;2.27;;
4939;SDS011;2485;49.326;7.214;2022-10-16T02:08:39;7.23;;;2.13;;
4939;SDS011;2485;49.326;7.214;2022-10-16T02:11:09;3.57;;;2.20;;
4939;SDS011;2485;49.326;7.214;2022-10-16T02:13:37;3.90;;;1.80;;
4939;SDS011;2485;49.326;7.214;2022-10-16T02:16:05;4.90;;;2.00;;
4939;SDS011;2485;49.326;7.214;2022-10-16T02:18:32;2.20;;;2.00;;
4939;SDS011;2485;49.326;7.214;2022-10-16T02:21:01;2.60;;;2.17;;
4939;SDS011;2485;49.326;7.214;2022-10-16T02:23:30;2.53;;;2.23;;
4939;SDS011;2485;49.326;7.214;2022-10-16T02:26:00;3.53;;;1.93;;
4939;SDS011;2485;49.326;7.214;2022-10-16T02:28:30;11.07;;;2.43;;
4939;SDS011;2485;49.326;7.214;2022-10-16T02:30:58;1.63;;;1.53;;
4939;SDS011;2485;49.326;7.214;2022-10-16T02:33:25;3.30;;;1.60;;
4939;SDS011;2485;49.326;7.214;2022-10-16T02:35:53;1.43;;;1.33;;
4939;SDS011;2485;49.326;7.214;2022-10-16T02:38:21;1.70;;;1.40;;
4939;SDS011;2485;49.326;7.214;2022-10-16T02:40:48;4.03;;;1.40;;
4939;SDS011;2485;49.326;7.214;2022-10-16T02:43:15;1.40;;;1.30;;
4939;SDS011;2485;49.326;7.214;2022-10-16T02:45:42;2.60;;;1.60;;
4939;SDS011;2485;49.326;7.214;2022-10-16T02:48:08;5.57;;;1.93;;
4939;SDS011;2485;49.326;7.214;2022-10-16T02:50:34;4.57;;;1.50;;
4939;SDS011;2485;49.326;7.214;2022-10-16T02:53:01;1.80;;;1.30;;
4939;SDS011;2485;49.326;7.214;2022-10-16T02:55:29;1.57;;;1.37;;
4939;SDS011;2485;49.326;7.214;2022-10-16T02:57:55;2.03;;;1.50;;
4939;SDS011;2485;49.326;7.214;2022-10-16T03:00:22;4.17;;;1.30;;
4939;SDS011;2485;49.326;7.214;2022-10-16T03:02:48;4.30;;;1.30;;
4939;SDS011;2485;49.326;7.214;2022-10-16T03:05:14;3.33;;;1.27;;
4939;SDS011;2485;49.326;7.214;2022-10-16T03:07:41;6.27;;;1.60;;
4939;SDS011;2485;49.326;7.214;2022-10-16T03:10:07;4.93;;;1.60;;
4939;SDS011;2485;49.326;7.214;2022-10-16T03:12:35;4.40;;;1.50;;
4939;SDS011;2485;49.326;7.214;2022-10-16T03:15:02;3.00;;;1.63;;
4939;SDS011;2485;49.326;7.214;2022-10-16T03:17:28;4.93;;;1.50;;
4939;SDS011;2485;49.326;7.214;2022-10-16T03:19:54;1.77;;;1.50;;
4939;SDS011;2485;49.326;7.214;2022-10-16T03:22:21;2.57;;;1.27;;
4939;SDS011;2485;49.326;7.214;2022-10-16T03:24:47;1.80;;;1.30;;
4939;SDS011;2485;49.326;7.214;2022-10-16T03:27:14;6.80;;;1.30;;
4939;SDS011;2485;49.326;7.214;2022-10-16T03:29:42;4.03;;;1.30;;
4939;SDS011;2485;49.326;7.214;2022-10-16T03:32:08;3.30;;;1.40;;
4939;SDS011;2485;49.326;7.214;2022-10-16T03:34:34;4.13;;;1.30;;
4939;SDS011;2485;49.326;7.214;2022-10-16T03:37:00;2.37;;;1.70;;
4939;SDS011;2485;49.326;7.214;2022-10-16T03:39:27;4.57;;;1.30;;
4939;SDS011;2485;49.326;7.214;2022-10-16T03:41:53;1.53;;;1.43;;
4939;SDS011;2485;49.326;7.214;2022-10-16T03:44:19;1.83;;;1.30;;
4939;SDS011;2485;49.326;7.214;2022-10-16T03:46:47;1.13;;;1.00;;
4939;SDS011;2485;49.326;7.214;2022-10-16T03:49:14;3.07;;;1.40;;
4939;SDS011;2485;49.326;7.214;2022-10-16T03:51:40;1.57;;;1.40;;
4939;SDS011;2485;49.326;7.214;2022-10-16T03:54:06;1.70;;;1.20;;
4939;SDS011;2485;49.326;7.214;2022-10-16T03:56:33;3.33;;;1.23;;
4939;SDS011;2485;49.326;7.214;2022-10-16T03:58:59;5.43;;;1.57;;
4939;SDS011;2485;49.326;7.214;2022-10-16T04:01:25;2.40;;;1.33;;
4939;SDS011;2485;49.326;7.214;2022-10-16T04:03:53;5.97;;;1.40;;
4939;SDS011;2485;49.326;7.214;2022-10-16T04:06:19;6.03;;;1.80;;
4939;SDS011;2485;49.326;7.214;2022-10-16T04:08:46;2.90;;;1.20;;
4939;SDS011;2485;49.326;7.214;2022-10-16T04:11:12;1.83;;;1.20;;
4939;SDS011;2485;49.326;7.214;2022-10-16T04:13:39;2.70;;;1.47;;
4939;SDS011;2485;49.326;7.214;2022-10-16T04:16:06;2.07;;;1.50;;
4939;SDS011;2485;49.326;7.214;2022-10-16T04:18:32;3.80;;;1.30;;
4939;SDS011;2485;49.326;7.214;2022-10-16T04:21:03;8.20;;;2.07;;
4939;SDS011;2485;49.326;7.214;2022-10-16T04:23:29;4.00;;;2.13;;
4939;SDS011;2485;49.326;7.214;2022-10-16T04:25:56;2.30;;;1.93;;
4939;SDS011;2485;49.326;7.214;2022-10-16T04:28:22;3.00;;;2.20;;
4939;SDS011;2485;49.326;7.214;2022-10-16T04:30:49;5.20;;;2.40;;
4939;SDS011;2485;49.326;7.214;2022-10-16T04:33:15;4.23;;;2.10;;
4939;SDS011;2485;49.326;7.214;2022-10-16T04:35:41;7.13;;;2.17;;
4939;SDS011;2485;49.326;7.214;2022-10-16T04:38:09;3.33;;;1.77;;
4939;SDS011;2485;49.326;7.214;2022-10-16T04:40:36;3.20;;;2.07;;
4939;SDS011;2485;49.326;7.214;2022-10-16T04:43:02;4.70;;;3.20;;
4939;SDS011;2485;49.326;7.214;2022-10-16T04:45:28;11.00;;;5.63;;
4939;SDS011;2485;49.326;7.214;2022-10-16T04:47:56;11.60;;;8.70;;
4939;SDS011;2485;49.326;7.214;2022-10-16T04:50:23;12.83;;;8.77;;
4939;SDS011;2485;49.326;7.214;2022-10-16T04:52:49;14.17;;;6.40;;
4939;SDS011;2485;49.326;7.214;2022-10-16T04:55:17;10.00;;;4.10;;
4939;SDS011;2485;49.326;7.214;2022-10-16T04:57:43;7.47;;;5.03;;
4939;SDS011;2485;49.326;7.214;2022-10-16T05:00:10;8.57;;;4.87;;
4939;SDS011;2485;49.326;7.214;2022-10-16T05:02:36;6.90;;;2.80;;
4939;SDS011;2485;49.326;7.214;2022-10-16T05:05:03;9.00;;;2.83;;
4939;SDS011;2485;49.326;7.214;2022-10-16T05:07:29;4.47;;;3.10;;
4939;SDS011;2485;49.326;7.214;2022-10-16T05:09:56;11.70;;;3.37;;
4939;SDS011;2485;49.326;7.214;2022-10-16T05:12:24;4.53;;;2.77;;
4939;SDS011;2485;49.326;7.214;2022-10-16T05:14:50;4.93;;;2.20;;
4939;SDS011;2485;49.326;7.214;2022-10-16T05:17:17;3.27;;;2.30;;
4939;SDS011;2485;49.326;7.214;2022-10-16T05:19:43;3.80;;;2.30;;
4939;SDS011;2485;49.326;7.214;2022-10-16T05:22:09;4.33;;;2.77;;
4939;SDS011;2485;49.326;7.214;2022-10-16T05:24:36;5.30;;;2.70;;
4939;SDS011;2485;49.326;7.214;2022-10-16T05:27:02;9.13;;;2.40;;
4939;SDS011;2485;49.326;7.214;2022-10-16T05:29:30;6.60;;;2.50;;
4939;SDS011;2485;49.326;7.214;2022-10-16T05:31:57;6.03;;;2.70;;
4939;SDS011;2485;49.326;7.214;2022-10-16T05:34:23;7.40;;;3.03;;
4939;SDS011;2485;49.326;7.214;2022-10-16T05:36:49;12.33;;;3.10;;
4939;SDS011;2485;49.326;7.214;2022-10-16T05:39:16;4.97;;;2.60;;
4939;SDS011;2485;49.326;7.214;2022-10-16T05:41:42;3.43;;;2.60;;
4939;SDS011;2485;49.326;7.214;2022-10-16T05:44:08;4.10;;;2.53;;
4939;SDS011;2485;49.326;7.214;2022-10-16T05:46:36;16.43;;;3.00;;
4939;SDS011;2485;49.326;7.214;2022-10-16T05:49:03;4.33;;;2.73;;
4939;SDS011;2485;49.326;7.214;2022-10-16T05:51:29;6.93;;;3.00;;
4939;SDS011;2485;49.326;7.214;2022-10-16T05:53:55;9.57;;;3.70;;
4939;SDS011;2485;49.326;7.214;2022-10-16T05:56:22;14.73;;;4.53;;
4939;SDS011;2485;49.326;7.214;2022-10-16T05:58:48;7.50;;;3.83;;
4939;SDS011;2485;49.326;7.214;2022-10-16T06:01:15;8.60;;;4.17;;
4939;SDS011;2485;49.326;7.214;2022-10-16T06:03:43;8.47;;;3.73;;
4939;SDS011;2485;49.326;7.214;2022-10-16T06:06:10;8.13;;;4.47;;
4939;SDS011;2485;49.326;7.214;2022-10-16T06:08:37;7.23;;;4.03;;
4939;SDS011;2485;49.326;7.214;2022-10-16T06:11:04;6.07;;;3.70;;
4939;SDS011;2485;49.326;7.214;2022-10-16T06:13:31;4.60;;;3.73;;
4939;SDS011;2485;49.326;7.214;2022-10-16T06:15:57;27.13;;;4.13;;
4939;SDS011;2485;49.326;7.214;2022-10-16T06:18:24;13.07;;;5.80;;
4939;SDS011;2485;49.326;7.214;2022-10-16T06:20:52;6.90;;;4.07;;
4939;SDS011;2485;49.326;7.214;2022-10-16T06:23:18;14.90;;;7.27;;
4939;SDS011;2485;49.326;7.214;2022-10-16T06:25:44;22.60;;;9.13;;
4939;SDS011;2485;49.326;7.214;2022-10-16T06:28:11;19.40;;;7.80;;
4939;SDS011;2485;49.326;7.214;2022-10-16T06:30:37;13.53;;;6.17;;
4939;SDS011;2485;49.326;7.214;2022-10-16T06:33:03;9.20;;;5.30;;
4939;SDS011;2485;49.326;7.214;2022-10-16T06:35:30;12.03;;;5.83;;
4939;SDS011;2485;49.326;7.214;2022-10-16T06:37:58;16.00;;;8.53;;
4939;SDS011;2485;49.326;7.214;2022-10-16T06:40:24;15.33;;;8.73;;
4939;SDS011;2485;49.326;7.214;2022-10-16T06:42:51;14.33;;;6.80;;
4939;SDS011;2485;49.326;7.214;2022-10-16T06:45:18;9.80;;;5.23;;
4939;SDS011;2485;49.326;7.214;2022-10-16T06:47:44;8.67;;;4.50;;
4939;SDS011;2485;49.326;7.214;2022-10-16T06:50:10;6.17;;;4.50;;
4939;SDS011;2485;49.326;7.214;2022-10-16T06:52:37;10.83;;;5.57;;
4939;SDS011;2485;49.326;7.214;2022-10-16T06:55:05;9.37;;;4.77;;
4939;SDS011;2485;49.326;7.214;2022-10-16T06:57:32;10.43;;;4.87;;
4939;SDS011;2485;49.326;7.214;2022-10-16T06:59:58;11.27;;;4.40;;
4939;SDS011;2485;49.326;7.214;2022-10-16T07:02:24;5.20;;;4.33;;
4939;SDS011;2485;49.326;7.214;2022-10-16T07:04:51;8.37;;;4.93;;
4939;SDS011;2485;49.326;7.214;2022-10-16T07:07:17;6.70;;;4.50;;
4939;SDS011;2485;49.326;7.214;2022-10-16T07:09:43;9.13;;;5.10;;
4939;SDS011;2485;49.326;7.214;2022-10-16T07:12:11;9.40;;;5.90;;
4939;SDS011;2485;49.326;7.214;2022-10-16T07:14:37;11.23;;;5.57;;
4939;SDS011;2485;49.326;7.214;2022-10-16T07:17:04;10.00;;;5.20;;
4939;SDS011;2485;49.326;7.214;2022-10-16T07:19:30;12.47;;;4.83;;
4939;SDS011;2485;49.326;7.214;2022-10-16T07:21:57;6.57;;;3.83;;
4939;SDS011;2485;49.326;7.214;2022-10-16T07:24:23;7.17;;;3.63;;
4939;SDS011;2485;49.326;7.214;2022-10-16T07:26:49;6.57;;;2.77;;
4939;SDS011;2485;49.326;7.214;2022-10-16T07:29:18;4.83;;;3.47;;
4939;SDS011;2485;49.326;7.214;2022-10-16T07:31:45;5.53;;;3.30;;
4939;SDS011;2485;49.326;7.214;2022-10-16T07:34:13;5.97;;;3.33;;
4939;SDS011;2485;49.326;7.214;2022-10-16T07:36:39;6.53;;;3.80;;
4939;SDS011;2485;49.326;7.214;2022-10-16T07:39:06;9.67;;;5.27;;
4939;SDS011;2485;49.326;7.214;2022-10-16T07:41:32;8.40;;;4.47;;
4939;SDS011;2485;49.326;7.214;2022-10-16T07:44:01;8.47;;;4.30;;
4939;SDS011;2485;49.326;7.214;2022-10-16T07:46:29;6.23;;;4.50;;
4939;SDS011;2485;49.326;7.214;2022-10-16T07:48:56;7.03;;;3.97;;
4939;SDS011;2485;49.326;7.214;2022-10-16T07:51:23;9.87;;;4.77;;
4939;SDS011;2485;49.326;7.214;2022-10-16T07:53:50;5.60;;;4.10;;
4939;SDS011;2485;49.326;7.214;2022-10-16T07:56:16;6.33;;;3.77;;
4939;SDS011;2485;49.326;7.214;2022-10-16T07:58:43;9.07;;;4.07;;
4939;SDS011;2485;49.326;7.214;2022-10-16T08:01:10;4.90;;;4.30;;
4939;SDS011;2485;49.326;7.214;2022-10-16T08:03:38;8.57;;;4.87;;
4939;SDS011;2485;49.326;7.214;2022-10-16T08:06:07;6.90;;;4.23;;
4939;SDS011;2485;49.326;7.214;2022-10-16T08:08:33;6.03;;;4.43;;
4939;SDS011;2485;49.326;7.214;2022-10-16T08:11:00;11.80;;;4.77;;
4939;SDS011;2485;49.326;7.214;2022-10-16T08:13:28;8.60;;;5.20;;
4939;SDS011;2485;49.326;7.214;2022-10-16T08:15:55;8.37;;;5.10;;
4939;SDS011;2485;49.326;7.214;2022-10-16T08:18:22;6.37;;;3.50;;
4939;SDS011;2485;49.326;7.214;2022-10-16T08:20:54;6.60;;;4.20;;
4939;SDS011;2485;49.326;7.214;2022-10-16T08:23:21;11.90;;;3.50;;
4939;SDS011;2485;49.326;7.214;2022-10-16T08:25:47;10.07;;;4.90;;
4939;SDS011;2485;49.326;7.214;2022-10-16T08:28:13;7.27;;;4.00;;
4939;SDS011;2485;49.326;7.214;2022-10-16T08:30:40;4.80;;;3.30;;
4939;SDS011;2485;49.326;7.214;2022-10-16T08:33:07;4.73;;;3.00;;
4939;SDS011;2485;49.326;7.214;2022-10-16T08:35:33;3.73;;;2.60;;
4939;SDS011;2485;49.326;7.214;2022-10-16T08:38:01;6.53;;;2.63;;
4939;SDS011;2485;49.326;7.214;2022-10-16T08:40:29;5.40;;;2.60;;
4939;SDS011;2485;49.326;7.214;2022-10-16T08:43:17;6.07;;;2.60;;
4939;SDS011;2485;49.326;7.214;2022-10-16T08:48:34;3.23;;;2.20;;
4939;SDS011;2485;49.326;7.214;2022-10-16T08:51:02;4.13;;;2.40;;
4939;SDS011;2485;49.326;7.214;2022-10-16T08:53:31;11.40;;;2.70;;
4939;SDS011;2485;49.326;7.214;2022-10-16T08:55:59;6.73;;;2.00;;
4939;SDS011;2485;49.326;7.214;2022-10-16T08:58:27;5.23;;;3.00;;
4939;SDS011;2485;49.326;7.214;2022-10-16T09:00:54;6.30;;;2.30;;
4939;SDS011;2485;49.326;7.214;2022-10-16T09:03:23;3.77;;;2.47;;
4939;SDS011;2485;49.326;7.214;2022-10-16T09:08:48;3.33;;;2.83;;
4939;SDS011;2485;49.326;7.214;2022-10-16T09:11:18;6.50;;;2.47;;
4939;SDS011;2485;49.326;7.214;2022-10-16T09:13:51;4.80;;;2.37;;
4939;SDS011;2485;49.326;7.214;2022-10-16T09:16:21;4.17;;;2.60;;
4939;SDS011;2485;49.326;7.214;2022-10-16T09:18:51;3.40;;;3.00;;
4939;SDS011;2485;49.326;7.214;2022-10-16T09:21:19;2.60;;;2.27;;
4939;SDS011;2485;49.326;7.214;2022-10-16T09:23:48;2.90;;;2.30;;
4939;SDS011;2485;49.326;7.214;2022-10-16T09:26:16;3.27;;;2.97;;
4939;SDS011;2485;49.326;7.214;2022-10-16T09:28:44;4.00;;;2.30;;
4939;SDS011;2485;49.326;7.214;2022-10-16T09:31:13;3.40;;;2.40;;
4939;SDS011;2485;49.326;7.214;2022-10-16T09:33:40;8.60;;;3.00;;
4939;SDS011;2485;49.326;7.214;2022-10-16T09:36:07;9.80;;;2.87;;
4939;SDS011;2485;49.326;7.214;2022-10-16T09:38:34;4.40;;;2.47;;
4939;SDS011;2485;49.326;7.214;2022-10-16T09:41:03;4.33;;;2.70;;
4939;SDS011;2485;49.326;7.214;2022-10-16T09:43:39;6.33;;;2.33;;
4939;SDS011;2485;49.326;7.214;2022-10-16T09:46:08;5.73;;;2.63;;
4939;SDS011;2485;49.326;7.214;2022-10-16T09:48:47;2.80;;;2.50;;
4939;SDS011;2485;49.326;7.214;2022-10-16T09:51:16;3.87;;;2.50;;
4939;SDS011;2485;49.326;7.214;2022-10-16T09:53:44;8.27;;;3.27;;
4939;SDS011;2485;49.326;7.214;2022-10-16T09:56:20;5.73;;;2.60;;
4939;SDS011;2485;49.326;7.214;2022-10-16T09:58:49;5.50;;;2.83;;
4939;SDS011;2485;49.326;7.214;2022-10-16T10:01:16;4.40;;;2.87;;
4939;SDS011;2485;49.326;7.214;2022-10-16T10:03:43;4.50;;;2.83;;
4939;SDS011;2485;49.326;7.214;2022-10-16T10:06:17;5.03;;;2.50;;
4939;SDS011;2485;49.326;7.214;2022-10-16T10:08:56;4.70;;;2.93;;
4939;SDS011;2485;49.326;7.214;2022-10-16T10:11:38;5.97;;;2.70;;
4939;SDS011;2485;49.326;7.214;2022-10-16T10:14:05;4.10;;;2.00;;
4939;SDS011;2485;49.326;7.214;2022-10-16T10:16:32;2.60;;;2.17;;
4939;SDS011;2485;49.326;7.214;2022-10-16T10:18:58;4.00;;;2.43;;
4939;SDS011;2485;49.326;7.214;2022-10-16T10:21:25;2.60;;;2.00;;
4939;SDS011;2485;49.326;7.214;2022-10-16T10:23:54;3.37;;;2.30;;
4939;SDS011;2485;49.326;7.214;2022-10-16T10:26:22;4.97;;;2.50;;
4939;SDS011;2485;49.326;7.214;2022-10-16T10:28:53;5.20;;;2.50;;
4939;SDS011;2485;49.326;7.214;2022-10-16T10:31:24;5.17;;;2.50;;
4939;SDS011;2485;49.326;7.214;2022-10-16T10:33:53;2.40;;;2.07;;
4939;SDS011;2485;49.326;7.214;2022-10-16T10:36:27;3.70;;;2.20;;
4939;SDS011;2485;49.326;7.214;2022-10-16T10:38:54;4.60;;;2.70;;
4939;SDS011;2485;49.326;7.214;2022-10-16T10:41:43;4.70;;;2.33;;
4939;SDS011;2485;49.326;7.214;2022-10-16T10:44:14;3.00;;;2.30;;
4939;SDS011;2485;49.326;7.214;2022-10-16T10:46:44;5.87;;;2.50;;
4939;SDS011;2485;49.326;7.214;2022-10-16T10:49:27;3.03;;;2.30;;
4939;SDS011;2485;49.326;7.214;2022-10-16T10:52:00;3.13;;;2.33;;
4939;SDS011;2485;49.326;7.214;2022-10-16T10:54:28;5.43;;;2.40;;
4939;SDS011;2485;49.326;7.214;2022-10-16T10:57:00;6.63;;;2.97;;
4939;SDS011;2485;49.326;7.214;2022-10-16T10:59:32;4.53;;;2.40;;
4939;SDS011;2485;49.326;7.214;2022-10-16T11:02:03;5.70;;;2.67;;
4939;SDS011;2485;49.326;7.214;2022-10-16T11:04:38;3.47;;;2.23;;
4939;SDS011;2485;49.326;7.214;2022-10-16T11:07:09;4.80;;;2.20;;
4939;SDS011;2485;49.326;7.214;2022-10-16T11:09:38;5.33;;;2.83;;
4939;SDS011;2485;49.326;7.214;2022-10-16T11:12:07;5.20;;;2.20;;
4939;SDS011;2485;49.326;7.214;2022-10-16T11:14:38;6.53;;;2.97;;
4939;SDS011;2485;49.326;7.214;2022-10-16T11:17:08;7.90;;;2.50;;
4939;SDS011;2485;49.326;7.214;2022-10-16T11:19:37;4.80;;;2.63;;
4939;SDS011;2485;49.326;7.214;2022-10-16T11:22:09;3.17;;;2.40;;
4939;SDS011;2485;49.326;7.214;2022-10-16T11:24:41;3.23;;;2.17;;
4939;SDS011;2485;49.326;7.214;2022-10-16T11:27:09;5.70;;;2.40;;
4939;SDS011;2485;49.326;7.214;2022-10-16T11:29:43;3.40;;;2.53;;
4939;SDS011;2485;49.326;7.214;2022-10-16T11:32:13;3.73;;;2.70;;
4939;SDS011;2485;49.326;7.214;2022-10-16T11:34:41;4.10;;;2.97;;
4939;SDS011;2485;49.326;7.214;2022-10-16T11:37:10;8.93;;;2.67;;
4939;SDS011;2485;49.326;7.214;2022-10-16T11:39:38;2.93;;;2.30;;
4939;SDS011;2485;49.326;7.214;2022-10-16T11:42:05;5.87;;;2.30;;
4939;SDS011;2485;49.326;7.214;2022-10-16T11:44:43;3.67;;;2.30;;
4939;SDS011;2485;49.326;7.214;2022-10-16T11:47:19;2.33;;;2.10;;
4939;SDS011;2485;49.326;7.214;2022-10-16T11:49:49;4.63;;;2.53;;
4939;SDS011;2485;49.326;7.214;2022-10-16T11:52:19;3.30;;;2.70;;
4939;SDS011;2485;49.326;7.214;2022-10-16T11:54:47;4.20;;;2.10;;
4939;SDS011;2485;49.326;7.214;2022-10-16T11:57:16;6.73;;;2.60;;
4939;SDS011;2485;49.326;7.214;2022-10-16T11:59:45;2.57;;;2.20;;
4939;SDS011;2485;49.326;7.214;2022-10-16T12:02:25;5.10;;;2.77;;
4939;SDS011;2485;49.326;7.214;2022-10-16T12:04:54;4.10;;;3.03;;
4939;SDS011;2485;49.326;7.214;2022-10-16T12:07:27;5.27;;;2.83;;
4939;SDS011;2485;49.326;7.214;2022-10-16T12:09:55;3.60;;;2.40;;
4939;SDS011;2485;49.326;7.214;2022-10-16T12:12:26;8.07;;;2.10;;
4939;SDS011;2485;49.326;7.214;2022-10-16T12:15:01;5.07;;;2.93;;
4939;SDS011;2485;49.326;7.214;2022-10-16T12:17:34;5.90;;;3.13;;
4939;SDS011;2485;49.326;7.214;2022-10-16T12:20:12;5.63;;;3.20;;
4939;SDS011;2485;49.326;7.214;2022-10-16T12:22:41;2.73;;;2.30;;
4939;SDS011;2485;49.326;7.214;2022-10-16T12:25:19;3.53;;;2.50;;
4939;SDS011;2485;49.326;7.214;2022-10-16T12:27:53;5.20;;;2.73;;
4939;SDS011;2485;49.326;7.214;2022-10-16T12:30:22;2.90;;;2.30;;
4939;SDS011;2485;49.326;7.214;2022-10-16T12:32:53;11.60;;;3.20;;
4939;SDS011;2485;49.326;7.214;2022-10-16T12:35:20;13.33;;;2.87;;
4939;SDS011;2485;49.326;7.214;2022-10-16T12:37:48;3.80;;;2.77;;
4939;SDS011;2485;49.326;7.214;2022-10-16T12:40:15;4.07;;;2.57;;
4939;SDS011;2485;49.326;7.214;2022-10-16T12:42:42;15.17;;;3.53;;
4939;SDS011;2485;49.326;7.214;2022-10-16T12:47:57;2.90;;;2.40;;
4939;SDS011;2485;49.326;7.214;2022-10-16T12:50:29;3.73;;;2.10;;
4939;SDS011;2485;49.326;7.214;2022-10-16T12:52:57;5.23;;;2.80;;
4939;SDS011;2485;49.326;7.214;2022-10-16T12:55:23;6.10;;;3.33;;
4939;SDS011;2485;49.326;7.214;2022-10-16T12:58:00;5.67;;;3.90;;
4939;SDS011;2485;49.326;7.214;2022-10-16T13:00:32;3.20;;;2.70;;
4939;SDS011;2485;49.326;7.214;2022-10-16T13:05:57;6.50;;;2.60;;
4939;SDS011;2485;49.326;7.214;2022-10-16T13:08:29;3.20;;;2.50;;
4939;SDS011;2485;49.326;7.214;2022-10-16T13:11:01;5.07;;;2.37;;
4939;SDS011;2485;49.326;7.214;2022-10-16T13:13:41;5.40;;;2.67;;
4939;SDS011;2485;49.326;7.214;2022-10-16T13:16:14;3.20;;;2.50;;
4939;SDS011;2485;49.326;7.214;2022-10-16T13:18:44;7.20;;;2.50;;
4939;SDS011;2485;49.326;7.214;2022-10-16T13:21:20;4.53;;;2.60;;
4939;SDS011;2485;49.326;7.214;2022-10-16T13:23:50;3.57;;;2.50;;
4939;SDS011;2485;49.326;7.214;2022-10-16T13:26:23;4.50;;;2.30;;
4939;SDS011;2485;49.326;7.214;2022-10-16T13:28:51;13.07;;;2.87;;
4939;SDS011;2485;49.326;7.214;2022-10-16T13:31:18;4.43;;;2.33;;
4939;SDS011;2485;49.326;7.214;2022-10-16T13:33:46;3.97;;;2.00;;
4939;SDS011;2485;49.326;7.214;2022-10-16T13:36:22;9.57;;;3.13;;
4939;SDS011;2485;49.326;7.214;2022-10-16T13:38:48;3.57;;;2.40;;
4939;SDS011;2485;49.326;7.214;2022-10-16T13:41:25;3.70;;;2.43;;
4939;SDS011;2485;49.326;7.214;2022-10-16T13:43:51;5.63;;;2.63;;
4939;SDS011;2485;49.326;7.214;2022-10-16T13:46:19;6.37;;;2.80;;
4939;SDS011;2485;49.326;7.214;2022-10-16T13:48:55;4.20;;;2.40;;
4939;SDS011;2485;49.326;7.214;2022-10-16T13:51:25;3.80;;;2.40;;
4939;SDS011;2485;49.326;7.214;2022-10-16T13:53:51;8.93;;;2.97;;
4939;SDS011;2485;49.326;7.214;2022-10-16T13:56:18;3.80;;;2.70;;
4939;SDS011;2485;49.326;7.214;2022-10-16T13:58:45;3.73;;;2.40;;
4939;SDS011;2485;49.326;7.214;2022-10-16T14:01:15;10.60;;;2.77;;
4939;SDS011;2485;49.326;7.214;2022-10-16T14:03:42;7.27;;;3.00;;
4939;SDS011;2485;49.326;7.214;2022-10-16T14:06:11;3.83;;;2.90;;
4939;SDS011;2485;49.326;7.214;2022-10-16T14:08:40;4.40;;;2.57;;
4939;SDS011;2485;49.326;7.214;2022-10-16T14:11:07;3.80;;;3.10;;
4939;SDS011;2485;49.326;7.214;2022-10-16T14:13:36;3.80;;;2.50;;
4939;SDS011;2485;49.326;7.214;2022-10-16T14:16:05;5.43;;;2.50;;
4939;SDS011;2485;49.326;7.214;2022-10-16T14:18:32;4.70;;;2.37;;
4939;SDS011;2485;49.326;7.214;2022-10-16T14:21:03;6.53;;;3.20;;
4939;SDS011;2485;49.326;7.214;2022-10-16T14:23:29;6.43;;;2.80;;
4939;SDS011;2485;49.326;7.214;2022-10-16T14:26:06;5.83;;;2.90;;
4939;SDS011;2485;49.326;7.214;2022-10-16T14:28:33;5.83;;;2.77;;
4939;SDS011;2485;49.326;7.214;2022-10-16T14:31:00;4.40;;;2.40;;
4939;SDS011;2485;49.326;7.214;2022-10-16T14:33:31;6.93;;;3.20;;
4939;SDS011;2485;49.326;7.214;2022-10-16T14:36:02;5.70;;;3.20;;
4939;SDS011;2485;49.326;7.214;2022-10-16T14:38:29;7.97;;;2.70;;
4939;SDS011;2485;49.326;7.214;2022-10-16T14:40:56;2.90;;;2.60;;
4939;SDS011;2485;49.326;7.214;2022-10-16T14:43:26;4.00;;;2.80;;
4939;SDS011;2485;49.326;7.214;2022-10-16T14:45:55;5.70;;;3.40;;
4939;SDS011;2485;49.326;7.214;2022-10-16T14:48:22;3.50;;;2.80;;
4939;SDS011;2485;49.326;7.214;2022-10-16T14:50:49;3.93;;;2.87;;
4939;SDS011;2485;49.326;7.214;2022-10-16T14:53:16;4.90;;;3.90;;
4939;SDS011;2485;49.326;7.214;2022-10-16T14:55:42;7.23;;;3.50;;
4939;SDS011;2485;49.326;7.214;2022-10-16T14:58:09;5.17;;;3.47;;
4939;SDS011;2485;49.326;7.214;2022-10-16T15:00:41;5.23;;;3.67;;
4939;SDS011;2485;49.326;7.214;2022-10-16T15:03:07;9.90;;;3.43;;
4939;SDS011;2485;49.326;7.214;2022-10-16T15:05:34;6.37;;;3.93;;
4939;SDS011;2485;49.326;7.214;2022-10-16T15:08:00;7.17;;;3.37;;
4939;SDS011;2485;49.326;7.214;2022-10-16T15:10:27;4.17;;;3.60;;
4939;SDS011;2485;49.326;7.214;2022-10-16T15:12:54;5.40;;;3.57;;
4939;SDS011;2485;49.326;7.214;2022-10-16T15:15:25;4.50;;;3.87;;
4939;SDS011;2485;49.326;7.214;2022-10-16T15:17:53;9.87;;;4.00;;
4939;SDS011;2485;49.326;7.214;2022-10-16T15:20:21;5.20;;;3.83;;
4939;SDS011;2485;49.326;7.214;2022-10-16T15:22:48;6.57;;;4.23;;
4939;SDS011;2485;49.326;7.214;2022-10-16T15:25:17;6.57;;;4.00;;
4939;SDS011;2485;49.326;7.214;2022-10-16T15:27:48;5.87;;;3.50;;
4939;SDS011;2485;49.326;7.214;2022-10-16T15:30:15;9.33;;;4.00;;
4939;SDS011;2485;49.326;7.214;2022-10-16T15:32:41;6.07;;;4.90;;
4939;SDS011;2485;49.326;7.214;2022-10-16T15:35:09;8.93;;;4.00;;